CheckWX is a tool to help pilots better visualize weather data.  It is not intended as a substitute for an official pre-flight weather briefing.

00:29:34 UTC

KHND TAF
Henderson Executive Airport
Las Vegas, Nevada, USA
KHND 052323Z 0600/0624 VRB05KT P6SM FEW250 FM060200 16006KT P6SM BKN250 FM061600 VRB05KT P6SM BKN200

Dec-6@
00:00 UTC

Dec-6 @ 00:00 UTC

Dec-6@
02:00 UTC

Dec-6 @ 02:00 UTC

KHND 052323Z 0600/0624 VRB05KT P6SM FEW250
Wind
  • Variable at 5 KTS
Cloud Levels
  • Few at 25,000' AGL

Dec-6@
02:00 UTC

Dec-6 @ 02:00 UTC

Dec-6@
16:00 UTC

Dec-6 @ 16:00 UTC

FM060200 16006KT P6SM BKN250

From

From Standard forecast or significant change

Wind
  • 160° at 6 KTS
Cloud Levels
  • Broken at 25,000' AGL

Dec-6@
16:00 UTC

Dec-6 @ 16:00 UTC

Dec-7@
00:00 UTC

Dec-7 @ 00:00 UTC

FM061600 VRB05KT P6SM BKN200

From

From Standard forecast or significant change

Wind
  • Variable at 5 KTS
Cloud Levels
  • Broken at 20,000' AGL